Rosebud, Illinois
Current Conditions -  °F | °C
As of 10:15 AM on Thursday 18 Dec 2014 (Local Time) from KM30 Reporting Station
Haze Haze  
Wind Chill: 33°   Ceiling: 600
Heat Index: 33°   Visibility: 3mi
Dew Point: 33°   Wind: 3mph
Humidity: 100%   Direction: 30°NNE
Pressure: 30.31"   Gusts: NA
Location:  37.3224°N, 88.5774°W
Report Text: KM30 181615Z AUTO 03003KT 3SM BR BKN006 BKN021 OVC032 00/00 A3031 RMK AO2 T00030003
Loading
Personal Weather Stations






























Interactive Weather Map New forecast layout! Learn more

10-Day Weather Forecast

Advertisements
Track Severe Weather on mobile